Time;durP1;ratioP1;P1;durP2;ratioP2;P2;SDS_P1;SDS_P2;PMS_P1;PMS_P2;Temp;Humidity;BMP_temperature;BMP_pressure;BME280_temperature;BME280_humidity;BME280_pressure;Samples;Min_cycle;Max_cycle;Signal;HPM_P1;HPM_P2
2023/10/05 00:01:03;;;;;;;3.60;1.88;;;;;;;;;;4980225;28;20050;-78
2023/10/05 00:03:30;;;;;;;4.18;1.70;;;;;;;;;;4975637;28;20444;-77
2023/10/05 00:06:04;;;;;;;3.50;1.70;;;;;;;;;;5004682;28;20485;-77
2023/10/05 00:08:31;;;;;;;2.78;1.50;;;;;;;;;;4997525;28;20043;-77
2023/10/05 00:10:58;;;;;;;2.38;1.45;;;;;;;;;;4977232;28;20045;-78
2023/10/05 00:13:23;;;;;;;3.85;1.90;;;;;;;;;;4987101;28;20433;-78
2023/10/05 00:15:49;;;;;;;4.80;1.98;;;;;;;;;;4985392;28;20065;-77
2023/10/05 00:18:19;;;;;;;3.88;1.80;;;;;;;;;;4979831;28;20101;-78
2023/10/05 00:20:48;;;;;;;3.15;1.60;;;;;;;;;;4976628;28;20057;-77
2023/10/05 00:23:14;;;;;;;4.57;1.77;;;;;;;;;;5003206;28;20026;-78
2023/10/05 00:25:39;;;;;;;4.18;1.60;;;;;;;;;;4982577;28;20031;-78
2023/10/05 00:28:09;;;;;;;3.28;1.80;;;;;;;;;;4973692;28;20456;-78
2023/10/05 00:30:35;;;;;;;5.47;1.90;;;;;;;;;;4986623;28;20042;-77
2023/10/05 00:33:02;;;;;;;4.82;1.90;;;;;;;;;;4982020;28;20043;-76
2023/10/05 00:35:29;;;;;;;2.95;1.45;;;;;;;;;;4993401;28;20093;-77
2023/10/05 00:38:04;;;;;;;2.70;1.40;;;;;;;;;;4979023;28;20042;-77
2023/10/05 00:40:37;;;;;;;3.35;1.50;;;;;;;;;;4986153;28;20076;-78
2023/10/05 00:43:21;;;;;;;2.60;1.40;;;;;;;;;;4980190;28;20037;-76
2023/10/05 00:45:46;;;;;;;;;;;;;;;;;;4978195;28;20027;-78
2023/10/05 00:51:00;;;;;;;4.07;1.50;;;;;;;;;;4980599;28;20042;-77
2023/10/05 00:53:30;;;;;;;2.83;1.30;;;;;;;;;;4988107;28;20049;-78
2023/10/05 00:56:11;;;;;;;2.40;1.40;;;;;;;;;;5004074;28;20088;-77
2023/10/05 00:58:42;;;;;;;2.50;1.50;;;;;;;;;;4996047;28;20038;-78
2023/10/05 01:01:23;;;;;;;5.50;1.80;;;;;;;;;;4973487;28;20730;-77
2023/10/05 01:06:49;;;;;;;2.97;1.70;;;;;;;;;;4997233;28;20038;-77
2023/10/05 01:14:51;;;;;;;3.83;1.90;;;;;;;;;;4983742;28;20075;-77
2023/10/05 01:17:27;;;;;;;2.78;1.63;;;;;;;;;;4976626;28;20500;-77
2023/10/05 01:19:58;;;;;;;3.95;1.80;;;;;;;;;;4979574;28;20496;-77
2023/10/05 01:22:33;;;;;;;4.57;1.50;;;;;;;;;;5000119;28;20053;-78
2023/10/05 01:25:04;;;;;;;3.65;1.65;;;;;;;;;;4961241;28;20043;-77
2023/10/05 01:27:34;;;;;;;3.65;1.90;;;;;;;;;;4976202;28;20632;-78
2023/10/05 01:30:00;;;;;;;2.70;1.70;;;;;;;;;;4979775;28;20069;-77
2023/10/05 01:32:26;;;;;;;3.03;1.70;;;;;;;;;;4981184;28;20500;-78
2023/10/05 01:34:53;;;;;;;2.70;1.55;;;;;;;;;;4974436;28;20042;-77
2023/10/05 01:37:30;;;;;;;3.75;1.80;;;;;;;;;;4986934;28;20030;-77
2023/10/05 01:39:59;;;;;;;2.58;1.50;;;;;;;;;;4982294;28;20045;-78
2023/10/05 01:42:24;;;;;;;5.07;1.80;;;;;;;;;;4977374;28;20031;-77
2023/10/05 01:44:50;;;;;;;2.78;1.60;;;;;;;;;;4978505;28;20041;-78
2023/10/05 01:47:16;;;;;;;3.70;1.77;;;;;;;;;;5000621;28;20038;-77
2023/10/05 01:49:46;;;;;;;5.05;1.70;;;;;;;;;;4995450;28;20039;-78
2023/10/05 01:52:17;;;;;;;3.30;1.75;;;;;;;;;;4984646;28;20031;-77
2023/10/05 01:54:44;;;;;;;2.58;1.50;;;;;;;;;;4988187;28;20045;-77
2023/10/05 01:57:12;;;;;;;3.15;1.70;;;;;;;;;;4996084;28;20027;-77
2023/10/05 01:59:39;;;;;;;2.88;1.60;;;;;;;;;;4974116;28;20137;-77
2023/10/05 02:02:09;;;;;;;2.83;1.58;;;;;;;;;;5000103;28;20037;-78
2023/10/05 02:04:38;;;;;;;2.58;1.58;;;;;;;;;;4980385;28;20081;-77
2023/10/05 02:07:04;;;;;;;2.92;1.70;;;;;;;;;;4991465;28;20035;-78
2023/10/05 02:09:31;;;;;;;2.83;1.70;;;;;;;;;;4976367;28;20480;-78
2023/10/05 02:12:02;;;;;;;3.78;1.88;;;;;;;;;;4984661;28;20042;-77
2023/10/05 02:14:30;;;;;;;3.25;1.52;;;;;;;;;;4994332;28;20031;-77
2023/10/05 02:16:57;;;;;;;3.25;1.70;;;;;;;;;;4973966;28;20039;-77
2023/10/05 02:19:23;;;;;;;2.90;1.60;;;;;;;;;;4987969;28;20073;-77
2023/10/05 02:21:53;;;;;;;6.03;1.77;;;;;;;;;;4980704;28;20069;-77
2023/10/05 02:24:22;;;;;;;2.45;1.50;;;;;;;;;;4975100;28;20034;-77
2023/10/05 02:29:26;;;;;;;3.00;1.60;;;;;;;;;;4988090;28;20655;-77
2023/10/05 02:34:59;;;;;;;3.97;1.80;;;;;;;;;;4980681;28;20064;-77
2023/10/05 02:37:28;;;;;;;2.85;1.60;;;;;;;;;;4989467;28;20486;-77
2023/10/05 02:39:57;;;;;;;3.90;1.70;;;;;;;;;;4982203;28;20034;-77
2023/10/05 02:42:24;;;;;;;2.70;1.60;;;;;;;;;;4979092;28;20409;-77
2023/10/05 02:44:53;;;;;;;2.60;1.40;;;;;;;;;;5006682;28;20500;-77
2023/10/05 02:47:23;;;;;;;4.28;1.50;;;;;;;;;;4983579;28;20030;-77
2023/10/05 02:49:49;;;;;;;3.55;1.52;;;;;;;;;;4978042;28;20039;-78
2023/10/05 02:52:16;;;;;;;3.65;1.80;;;;;;;;;;4984910;28;20031;-77
2023/10/05 02:54:48;;;;;;;3.03;1.50;;;;;;;;;;4986157;28;20038;-78
2023/10/05 02:57:16;;;;;;;2.80;1.77;;;;;;;;;;4993936;28;20038;-77
2023/10/05 02:59:43;;;;;;;3.60;1.60;;;;;;;;;;4996248;28;20073;-78
2023/10/05 03:02:14;;;;;;;2.63;1.60;;;;;;;;;;4987053;28;20531;-77
2023/10/05 03:04:44;;;;;;;2.58;1.52;;;;;;;;;;4998338;28;20041;-78
2023/10/05 03:07:15;;;;;;;4.93;1.90;;;;;;;;;;4989841;28;20035;-77
2023/10/05 03:09:50;;;;;;;3.58;1.70;;;;;;;;;;5003908;28;20035;-78
2023/10/05 03:12:20;;;;;;;6.60;1.60;;;;;;;;;;4998521;28;20050;-78
2023/10/05 03:14:49;;;;;;;7.35;1.63;;;;;;;;;;4991607;28;20042;-78
2023/10/05 03:17:22;;;;;;;3.70;1.65;;;;;;;;;;4986842;28;20121;-78
2023/10/05 03:19:50;;;;;;;;;;;;;;;;;;5000980;28;20528;-78
2023/10/05 03:22:17;;;;;;;3.33;1.80;;;;;;;;;;4994843;28;19929;-77
2023/10/05 03:24:44;;;;;;;3.05;1.50;;;;;;;;;;4980914;28;20041;-78
2023/10/05 03:27:11;;;;;;;3.72;1.52;;;;;;;;;;5003448;28;20030;-77
2023/10/05 03:29:44;;;;;;;2.97;1.70;;;;;;;;;;4981743;28;20022;-78
2023/10/05 03:34:38;;;;;;;6.07;1.90;;;;;;;;;;4986825;28;20041;-78
2023/10/05 03:37:12;;;;;;;5.07;2.08;;;;;;;;;;4984075;28;20035;-78
2023/10/05 03:42:22;;;;;;;5.32;1.70;;;;;;;;;;4983778;28;20042;-78
2023/10/05 03:45:00;;;;;;;4.32;2.00;;;;;;;;;;4984002;28;20039;-78
2023/10/05 03:47:30;;;;;;;6.60;1.77;;;;;;;;;;4978965;28;20043;-77
2023/10/05 03:49:55;;;;;;;3.05;1.70;;;;;;;;;;4977084;28;20496;-77
2023/10/05 03:52:23;;;;;;;4.15;1.90;;;;;;;;;;5002429;28;20045;-77
2023/10/05 03:54:49;;;;;;;3.33;1.48;;;;;;;;;;4995509;28;20512;-77
2023/10/05 03:57:16;;;;;;;2.92;1.60;;;;;;;;;;4974891;28;20042;-78
2023/10/05 03:59:43;;;;;;;3.35;1.50;;;;;;;;;;4997982;28;20035;-77
2023/10/05 04:02:09;;;;;;;3.38;1.58;;;;;;;;;;4981515;28;20089;-77
2023/10/05 04:04:36;;;;;;;3.13;1.75;;;;;;;;;;4993663;28;20114;-77
2023/10/05 04:07:03;;;;;;;4.35;1.70;;;;;;;;;;4998928;28;20038;-77
2023/10/05 04:09:29;;;;;;;4.25;1.67;;;;;;;;;;4986426;28;20524;-77
2023/10/05 04:11:56;;;;;;;4.47;1.60;;;;;;;;;;4980429;28;20038;-77
2023/10/05 04:14:22;;;;;;;2.55;1.25;;;;;;;;;;4990620;28;20049;-77
2023/10/05 04:16:48;;;;;;;2.60;1.20;;;;;;;;;;4968116;28;20039;-78
2023/10/05 04:19:17;;;;;;;5.55;1.60;;;;;;;;;;4964249;28;20098;-78
2023/10/05 04:21:46;;;;;;;2.55;1.60;;;;;;;;;;4957361;28;20568;-77
2023/10/05 04:24:16;;;;;;;3.67;1.70;;;;;;;;;;4977553;28;20496;-77
2023/10/05 04:26:45;;;;;;;3.30;1.63;;;;;;;;;;4985329;28;20026;-78
2023/10/05 04:29:12;;;;;;;4.97;1.63;;;;;;;;;;4979518;28;20093;-78
2023/10/05 04:31:38;;;;;;;4.38;1.50;;;;;;;;;;4977129;28;20034;-77
2023/10/05 04:34:11;;;;;;;2.90;1.70;;;;;;;;;;4987045;28;20137;-78
2023/10/05 04:36:40;;;;;;;2.50;1.50;;;;;;;;;;4993731;28;20126;-77
2023/10/05 04:39:06;;;;;;;4.40;1.73;;;;;;;;;;4973424;28;20106;-78
2023/10/05 04:41:39;;;;;;;4.38;1.75;;;;;;;;;;4986925;28;20561;-77
2023/10/05 04:44:12;;;;;;;4.27;1.80;;;;;;;;;;4982419;28;20030;-77
2023/10/05 04:46:47;;;;;;;5.15;1.75;;;;;;;;;;4974616;28;20045;-77
2023/10/05 04:49:13;;;;;;;3.63;1.80;;;;;;;;;;4984890;28;20031;-77
2023/10/05 04:51:40;;;;;;;3.55;1.30;;;;;;;;;;4985021;28;20102;-77
2023/10/05 04:54:10;;;;;;;3.40;1.80;;;;;;;;;;4979300;28;20457;-77
2023/10/05 05:04:41;;;;;;;5.85;1.77;;;;;;;;;;4975676;28;20394;-77
2023/10/05 05:07:07;;;;;;;3.72;2.00;;;;;;;;;;4968939;28;20536;-77
2023/10/05 05:09:37;;;;;;;4.72;2.00;;;;;;;;;;4979873;28;20073;-76
2023/10/05 05:12:05;;;;;;;4.35;2.10;;;;;;;;;;4976278;28;20078;-76
2023/10/05 05:14:36;;;;;;;3.78;2.08;;;;;;;;;;4986039;28;20176;-77
2023/10/05 05:17:04;;;;;;;3.97;2.28;;;;;;;;;;4984394;28;20404;-77
2023/10/05 05:19:30;;;;;;;8.02;3.65;;;;;;;;;;4978162;28;20031;-78
2023/10/05 05:22:05;;;;;;;3.60;2.10;;;;;;;;;;4978008;28;20647;-78
2023/10/05 05:24:31;;;;;;;5.63;1.85;;;;;;;;;;4985796;28;20030;-77
2023/10/05 05:27:03;;;;;;;5.38;2.00;;;;;;;;;;4980034;28;20265;-78
2023/10/05 05:29:33;;;;;;;4.13;1.80;;;;;;;;;;4970946;28;20035;-77
2023/10/05 05:32:10;;;;;;;4.00;2.00;;;;;;;;;;4986805;28;20039;-78
2023/10/05 05:34:36;;;;;;;5.40;2.20;;;;;;;;;;4995269;28;20081;-77
2023/10/05 05:37:02;;;;;;;5.90;2.40;;;;;;;;;;4990701;28;20059;-78
2023/10/05 05:39:27;;;;;;;10.93;4.15;;;;;;;;;;4975446;28;20088;-78
2023/10/05 05:41:59;;;;;;;4.68;2.50;;;;;;;;;;4982511;28;20054;-77
2023/10/05 05:44:28;;;;;;;3.58;2.30;;;;;;;;;;4977917;28;20039;-78
2023/10/05 05:46:58;;;;;;;3.92;2.35;;;;;;;;;;4978162;28;20393;-78
2023/10/05 05:49:24;;;;;;;3.72;2.08;;;;;;;;;;4987434;28;20035;-79
2023/10/05 05:51:49;;;;;;;7.13;3.03;;;;;;;;;;4979355;28;20046;-79
2023/10/05 05:54:15;;;;;;;3.88;2.20;;;;;;;;;;4975926;28;20035;-79
2023/10/05 05:56:42;;;;;;;3.97;2.13;;;;;;;;;;4988627;28;20039;-79
2023/10/05 05:59:08;;;;;;;3.55;2.28;;;;;;;;;;4982224;28;20040;-79
2023/10/05 06:01:35;;;;;;;3.75;2.25;;;;;;;;;;4978014;28;20039;-79
2023/10/05 06:04:01;;;;;;;4.03;2.15;;;;;;;;;;4976419;28;20038;-79
2023/10/05 06:06:27;;;;;;;5.07;2.60;;;;;;;;;;4989654;28;20504;-78
2023/10/05 06:08:52;;;;;;;6.38;2.88;;;;;;;;;;4983316;28;20121;-78
2023/10/05 06:11:19;;;;;;;3.83;2.20;;;;;;;;;;4976696;28;20177;-78
2023/10/05 06:13:45;;;;;;;4.28;2.30;;;;;;;;;;4990690;28;20088;-78
2023/10/05 06:16:13;;;;;;;4.18;2.20;;;;;;;;;;4985248;28;20155;-78
2023/10/05 06:18:38;;;;;;;6.78;3.20;;;;;;;;;;4977070;28;20043;-78
2023/10/05 06:21:08;;;;;;;5.88;2.88;;;;;;;;;;4986798;28;20516;-78
2023/10/05 06:23:34;;;;;;;5.72;3.35;;;;;;;;;;4987164;28;20132;-77
2023/10/05 06:26:00;;;;;;;6.43;3.28;;;;;;;;;;4981535;28;20065;-78
2023/10/05 06:28:26;;;;;;;6.43;3.25;;;;;;;;;;4979961;28;20041;-78
2023/10/05 06:30:52;;;;;;;6.90;3.50;;;;;;;;;;4988666;28;20563;-78
2023/10/05 06:33:19;;;;;;;5.32;2.92;;;;;;;;;;4984085;28;20409;-79
2023/10/05 06:35:48;;;;;;;4.55;2.88;;;;;;;;;;4976618;28;22346;-78
2023/10/05 06:38:15;;;;;;;4.30;2.53;;;;;;;;;;4988393;28;20046;-78
2023/10/05 06:40:41;;;;;;;3.53;2.20;;;;;;;;;;4985052;28;20085;-78
2023/10/05 06:43:06;;;;;;;5.97;2.80;;;;;;;;;;4980167;28;20074;-78
2023/10/05 06:45:32;;;;;;;4.70;2.80;;;;;;;;;;4999077;28;20028;-78
2023/10/05 06:47:57;;;;;;;5.25;3.25;;;;;;;;;;4988750;28;20089;-79
2023/10/05 06:50:23;;;;;;;5.00;2.83;;;;;;;;;;4979746;28;20043;-78
2023/10/05 06:52:49;;;;;;;5.28;2.50;;;;;;;;;;4975195;28;20038;-78
2023/10/05 06:55:18;;;;;;;7.43;3.80;;;;;;;;;;4989732;28;20038;-78
2023/10/05 06:57:44;;;;;;;6.90;4.13;;;;;;;;;;4983782;28;20407;-78
2023/10/05 07:00:22;;;;;;;5.50;3.40;;;;;;;;;;4979449;28;20048;-78
2023/10/05 07:02:49;;;;;;;5.18;3.38;;;;;;;;;;4985315;28;20089;-78
2023/10/05 07:05:16;;;;;;;4.47;2.60;;;;;;;;;;4987377;28;20073;-78
2023/10/05 07:07:42;;;;;;;5.55;2.53;;;;;;;;;;4980840;28;20496;-78
2023/10/05 07:10:09;;;;;;;5.82;2.40;;;;;;;;;;4977683;28;20077;-79
2023/10/05 07:12:38;;;;;;;4.70;2.60;;;;;;;;;;4988738;28;20496;-79
2023/10/05 07:15:07;;;;;;;4.68;2.10;;;;;;;;;;4983542;28;20070;-78
2023/10/05 07:17:33;;;;;;;6.45;2.05;;;;;;;;;;4993435;28;20073;-78
2023/10/05 07:19:59;;;;;;;4.28;2.08;;;;;;;;;;4987123;28;20160;-79
2023/10/05 07:22:24;;;;;;;7.20;2.25;;;;;;;;;;4985208;28;20087;-79
2023/10/05 07:24:50;;;;;;;5.25;2.03;;;;;;;;;;4980483;28;20469;-78
2023/10/05 07:27:19;;;;;;;4.50;2.00;;;;;;;;;;4980119;28;20037;-78
2023/10/05 07:29:45;;;;;;;4.60;2.15;;;;;;;;;;4988684;28;20038;-78
2023/10/05 07:32:12;;;;;;;6.97;2.00;;;;;;;;;;4981803;28;20093;-78
2023/10/05 07:34:39;;;;;;;7.55;2.30;;;;;;;;;;4972343;28;20043;-79
2023/10/05 07:37:05;;;;;;;4.38;2.20;;;;;;;;;;4989196;28;20035;-78
2023/10/05 07:39:31;;;;;;;3.58;1.88;;;;;;;;;;4984311;28;20493;-79
2023/10/05 07:41:59;;;;;;;4.13;2.00;;;;;;;;;;4978448;28;20121;-78
2023/10/05 07:44:27;;;;;;;3.53;2.10;;;;;;;;;;4984435;28;20577;-78
2023/10/05 07:46:53;;;;;;;5.60;2.20;;;;;;;;;;4986807;28;20033;-78
2023/10/05 07:49:18;;;;;;;3.67;1.98;;;;;;;;;;4980110;28;20034;-78
2023/10/05 07:51:44;;;;;;;5.07;2.10;;;;;;;;;;4975122;28;20030;-78
2023/10/05 07:54:10;;;;;;;7.40;2.13;;;;;;;;;;4989193;28;20035;-78
2023/10/05 07:56:35;;;;;;;6.03;2.10;;;;;;;;;;4966747;28;20050;-78
2023/10/05 07:59:01;;;;;;;6.97;2.03;;;;;;;;;;4978171;28;20109;-79
2023/10/05 08:01:26;;;;;;;3.95;2.00;;;;;;;;;;4984133;28;20038;-78
2023/10/05 08:03:52;;;;;;;4.15;2.30;;;;;;;;;;4986239;28;20078;-78
2023/10/05 08:06:18;;;;;;;3.35;1.85;;;;;;;;;;4976942;28;20401;-79
2023/10/05 08:08:47;;;;;;;4.53;1.90;;;;;;;;;;4980518;28;20061;-78
2023/10/05 08:11:14;;;;;;;4.82;1.92;;;;;;;;;;5002348;28;20035;-78
2023/10/05 08:13:40;;;;;;;3.75;1.95;;;;;;;;;;4981167;28;20436;-79
2023/10/05 08:16:08;;;;;;;6.93;2.17;;;;;;;;;;4976679;28;20579;-78
2023/10/05 08:18:37;;;;;;;4.68;1.83;;;;;;;;;;4986323;28;20101;-79
2023/10/05 08:21:04;;;;;;;3.63;2.08;;;;;;;;;;4979070;28;20042;-78
2023/10/05 08:23:30;;;;;;;4.18;2.15;;;;;;;;;;4979394;28;20038;-79
2023/10/05 08:25:58;;;;;;;3.92;2.28;;;;;;;;;;4981997;28;20090;-78
2023/10/05 08:28:24;;;;;;;5.13;2.28;;;;;;;;;;4987961;28;20031;-78
2023/10/05 08:31:05;;;;;;;3.42;2.10;;;;;;;;;;4980698;28;20034;-79
2023/10/05 08:33:35;;;;;;;4.20;2.10;;;;;;;;;;4979015;28;20129;-79
2023/10/05 08:36:06;;;;;;;4.05;1.90;;;;;;;;;;4983075;28;20038;-79
2023/10/05 08:38:35;;;;;;;5.10;2.03;;;;;;;;;;4996238;28;20035;-78
2023/10/05 08:41:07;;;;;;;4.63;2.20;;;;;;;;;;4974613;28;20049;-78
2023/10/05 08:43:40;;;;;;;5.35;2.10;;;;;;;;;;5001697;28;20052;-78
2023/10/05 08:46:10;;;;;;;6.97;2.50;;;;;;;;;;4980817;28;20041;-79
2023/10/05 08:48:37;;;;;;;4.20;2.22;;;;;;;;;;4973876;28;20429;-79
2023/10/05 08:51:12;;;;;;;8.05;2.30;;;;;;;;;;4981909;28;20043;-79
2023/10/05 08:53:43;;;;;;;4.40;1.95;;;;;;;;;;4986210;28;20487;-78
2023/10/05 08:56:15;;;;;;;5.93;2.10;;;;;;;;;;4976915;28;20134;-78
2023/10/05 08:58:44;;;;;;;11.07;2.10;;;;;;;;;;4972084;28;20038;-79
2023/10/05 09:01:33;;;;;;;4.05;2.20;;;;;;;;;;4986807;28;20039;-80
2023/10/05 09:06:56;;;;;;;4.47;1.92;;;;;;;;;;4974312;28;20078;-79
2023/10/05 09:09:37;;;;;;;6.40;2.10;;;;;;;;;;4989507;28;20042;-79
2023/10/05 09:12:40;;;;;;;4.28;2.00;;;;;;;;;;4962676;28;20134;-80
2023/10/05 09:17:58;;;;;;;3.33;1.80;;;;;;;;;;4986198;28;20049;-78
2023/10/05 09:20:23;;;;;;;4.88;2.03;;;;;;;;;;4979746;28;20104;-78
2023/10/05 09:22:50;;;;;;;4.68;2.17;;;;;;;;;;4975925;28;20129;-79
2023/10/05 09:25:17;;;;;;;5.50;2.38;;;;;;;;;;4985482;28;20038;-78
2023/10/05 09:27:50;;;;;;;4.70;2.20;;;;;;;;;;4984959;28;20034;-78
2023/10/05 09:30:20;;;;;;;6.07;2.27;;;;;;;;;;4978642;28;20034;-79
2023/10/05 09:32:46;;;;;;;3.97;2.28;;;;;;;;;;4977677;28;20455;-82
2023/10/05 09:35:32;;;;;;;4.80;2.10;;;;;;;;;;5001808;28;20022;-82
2023/10/05 09:38:01;;;;;;;4.25;2.08;;;;;;;;;;4984402;28;20552;-82
2023/10/05 09:40:28;;;;;;;5.05;2.28;;;;;;;;;;4986293;28;20110;-82
2023/10/05 09:43:00;;;;;;;6.55;2.60;;;;;;;;;;4992201;28;20113;-82
2023/10/05 09:45:29;;;;;;;3.90;2.20;;;;;;;;;;4986326;28;20038;-81
2023/10/05 09:48:00;;;;;;;8.73;2.60;;;;;;;;;;4981311;28;20034;-81
2023/10/05 09:50:27;;;;;;;3.70;2.10;;;;;;;;;;4984223;28;20034;-81
2023/10/05 09:52:53;;;;;;;3.55;2.00;;;;;;;;;;4982507;28;20031;-81
2023/10/05 09:55:19;;;;;;;4.82;2.50;;;;;;;;;;4983614;28;20078;-81
2023/10/05 09:57:52;;;;;;;4.93;2.15;;;;;;;;;;4982562;28;20061;-79
2023/10/05 10:03:00;;;;;;;6.22;2.45;;;;;;;;;;4983068;28;20129;-79
2023/10/05 10:05:30;;;;;;;7.05;2.25;;;;;;;;;;4978319;28;20042;-80
2023/10/05 10:08:21;;;;;;;4.18;2.00;;;;;;;;;;4990735;28;20113;-80
2023/10/05 10:11:18;;;;;;;5.70;2.22;;;;;;;;;;4983405;28;20145;-79
2023/10/05 10:14:01;;;;;;;5.28;2.13;;;;;;;;;;4977318;28;20043;-79
2023/10/05 10:16:28;;;;;;;5.18;2.35;;;;;;;;;;4971208;28;20043;-80
2023/10/05 10:19:04;;;;;;;6.38;2.63;;;;;;;;;;4966081;28;20027;-80
2023/10/05 10:21:46;;;;;;;5.55;2.45;;;;;;;;;;4975142;28;20717;-79
2023/10/05 10:24:15;;;;;;;4.50;2.47;;;;;;;;;;4974184;28;20030;-80
2023/10/05 10:27:07;;;;;;;4.78;2.63;;;;;;;;;;4986344;28;20408;-79
2023/10/05 10:29:45;;;;;;;5.15;2.63;;;;;;;;;;4959672;28;20058;-80
2023/10/05 10:32:21;;;;;;;4.70;2.30;;;;;;;;;;4982960;28;20053;-79
2023/10/05 10:34:50;;;;;;;6.10;2.47;;;;;;;;;;4982418;28;20206;-80
2023/10/05 10:37:44;;;;;;;4.55;2.20;;;;;;;;;;4980141;28;20173;-80
2023/10/05 10:45:41;;;;;;;3.60;2.15;;;;;;;;;;4979166;28;20518;-82
2023/10/05 10:48:40;;;;;;;5.25;2.33;;;;;;;;;;4984977;28;20407;-80
2023/10/05 10:51:10;;;;;;;6.03;2.70;;;;;;;;;;4979413;28;20046;-82
2023/10/05 10:53:39;;;;;;;4.13;2.40;;;;;;;;;;4982987;28;20177;-82
2023/10/05 10:56:17;;;;;;;5.00;2.50;;;;;;;;;;4987112;28;20030;-82
2023/10/05 10:58:44;;;;;;;6.68;2.70;;;;;;;;;;4993485;28;20046;-81
2023/10/05 11:01:28;;;;;;;6.90;2.80;;;;;;;;;;4983365;28;20050;-81
2023/10/05 11:04:04;;;;;;;4.43;2.70;;;;;;;;;;4984192;28;20463;-82
2023/10/05 11:06:29;;;;;;;4.15;2.13;;;;;;;;;;5009050;28;20040;-82
2023/10/05 11:08:59;;;;;;;5.28;2.30;;;;;;;;;;4989737;28;20050;-81
2023/10/05 11:11:25;;;;;;;5.25;2.55;;;;;;;;;;4979955;28;20038;-82
2023/10/05 11:14:05;;;;;;;6.85;2.40;;;;;;;;;;4991485;28;20038;-81
2023/10/05 11:16:35;;;;;;;3.72;2.28;;;;;;;;;;4990724;28;20034;-82
2023/10/05 11:19:04;;;;;;;5.30;2.30;;;;;;;;;;4984944;28;20034;-81
2023/10/05 11:21:39;;;;;;;5.10;2.42;;;;;;;;;;4988492;28;20053;-81
2023/10/05 11:24:07;;;;;;;4.30;2.13;;;;;;;;;;5003509;28;20049;-82
2023/10/05 11:26:35;;;;;;;4.78;2.25;;;;;;;;;;4997713;28;20048;-82
2023/10/05 11:29:07;;;;;;;5.82;2.40;;;;;;;;;;4992991;28;20042;-82
2023/10/05 11:31:37;;;;;;;7.85;2.28;;;;;;;;;;4989726;28;20042;-82
2023/10/05 11:34:11;;;;;;;5.28;2.13;;;;;;;;;;4986626;28;20089;-82
2023/10/05 11:36:39;;;;;;;6.95;2.28;;;;;;;;;;4982461;28;20071;-81
2023/10/05 11:39:08;;;;;;;7.15;2.20;;;;;;;;;;4990740;28;20065;-82
2023/10/05 11:41:34;;;;;;;5.78;2.42;;;;;;;;;;4984640;28;20065;-83
2023/10/05 11:44:00;;;;;;;5.63;2.40;;;;;;;;;;4996291;28;20508;-82
2023/10/05 11:46:42;;;;;;;4.43;2.38;;;;;;;;;;4985790;28;20038;-83
2023/10/05 11:49:13;;;;;;;4.90;2.08;;;;;;;;;;4987457;28;20046;-82
2023/10/05 11:51:42;;;;;;;4.45;2.35;;;;;;;;;;4977557;28;20106;-81
2023/10/05 11:54:15;;;;;;;4.22;2.20;;;;;;;;;;4978763;28;20030;-82
2023/10/05 11:56:41;;;;;;;6.00;2.20;;;;;;;;;;4990720;28;20038;-82
2023/10/05 11:59:08;;;;;;;3.92;2.30;;;;;;;;;;4979956;28;20034;-82
2023/10/05 12:01:34;;;;;;;4.35;2.10;;;;;;;;;;4977047;28;20132;-81
2023/10/05 12:04:04;;;;;;;5.82;2.33;;;;;;;;;;4984006;28;20069;-82
2023/10/05 12:06:30;;;;;;;4.80;2.20;;;;;;;;;;4989156;28;20029;-82
2023/10/05 12:09:27;;;;;;;7.57;2.30;;;;;;;;;;4980104;28;20039;-82
2023/10/05 12:11:57;;;;;;;5.25;2.30;;;;;;;;;;4984346;28;20784;-82
2023/10/05 12:14:24;;;;;;;4.25;2.30;;;;;;;;;;4990303;28;20043;-82
2023/10/05 12:16:52;;;;;;;5.22;2.30;;;;;;;;;;4982196;28;20088;-81
2023/10/05 12:19:27;;;;;;;5.43;2.45;;;;;;;;;;4984247;28;20711;-82
2023/10/05 12:21:55;;;;;;;4.80;2.50;;;;;;;;;;4989153;28;20048;-82
2023/10/05 12:24:21;;;;;;;7.32;2.38;;;;;;;;;;4981018;28;20031;-82
2023/10/05 12:26:47;;;;;;;8.73;2.30;;;;;;;;;;4976767;28;20568;-82
2023/10/05 12:29:13;;;;;;;4.55;2.40;;;;;;;;;;5005925;28;20038;-82
2023/10/05 12:31:47;;;;;;;4.05;2.33;;;;;;;;;;4987361;28;20105;-82
2023/10/05 12:34:16;;;;;;;3.55;2.08;;;;;;;;;;4980578;28;20473;-82
2023/10/05 12:36:49;;;;;;;6.70;2.38;;;;;;;;;;4985608;28;20031;-82
2023/10/05 12:39:18;;;;;;;6.03;2.40;;;;;;;;;;5005891;28;20038;-82
2023/10/05 12:41:46;;;;;;;3.83;2.10;;;;;;;;;;4981293;28;20035;-81
2023/10/05 12:44:13;;;;;;;4.65;2.40;;;;;;;;;;4980026;28;20393;-80
2023/10/05 12:46:39;;;;;;;4.13;2.25;;;;;;;;;;4984685;28;20118;-81
2023/10/05 12:49:09;;;;;;;5.40;2.60;;;;;;;;;;4983213;28;20568;-81
2023/10/05 12:51:38;;;;;;;6.03;2.50;;;;;;;;;;4976120;28;20373;-81
2023/10/05 12:54:09;;;;;;;4.72;2.20;;;;;;;;;;4987619;28;20088;-80
2023/10/05 12:56:38;;;;;;;4.80;2.17;;;;;;;;;;4980913;28;20502;-81
2023/10/05 12:59:09;;;;;;;6.10;2.20;;;;;;;;;;4979436;28;20035;-81
2023/10/05 13:01:35;;;;;;;9.23;2.90;;;;;;;;;;4983786;28;20030;-81
2023/10/05 13:04:05;;;;;;;6.93;2.60;;;;;;;;;;4987578;28;20022;-81
2023/10/05 13:06:33;;;;;;;6.10;2.63;;;;;;;;;;4976577;28;20030;-82
2023/10/05 13:09:03;;;;;;;4.72;2.50;;;;;;;;;;4979189;28;20046;-82
2023/10/05 13:11:30;;;;;;;6.07;2.63;;;;;;;;;;4981266;28;20030;-81
2023/10/05 13:13:56;;;;;;;5.32;2.40;;;;;;;;;;4983649;28;20048;-81
2023/10/05 13:16:21;;;;;;;4.50;2.50;;;;;;;;;;4977520;28;20047;-81
2023/10/05 13:18:50;;;;;;;5.60;2.65;;;;;;;;;;4985435;28;20042;-81
2023/10/05 13:21:16;;;;;;;5.25;2.45;;;;;;;;;;4986177;28;20035;-81
2023/10/05 13:23:42;;;;;;;5.20;2.58;;;;;;;;;;4978718;28;20042;-81
2023/10/05 13:26:07;;;;;;;4.63;2.40;;;;;;;;;;4981286;28;20026;-81
2023/10/05 13:28:33;;;;;;;6.82;2.80;;;;;;;;;;4989019;28;20167;-81
2023/10/05 13:31:05;;;;;;;4.25;2.35;;;;;;;;;;4982043;28;20073;-82
2023/10/05 13:33:35;;;;;;;5.15;2.75;;;;;;;;;;4978412;28;20089;-81
2023/10/05 13:36:06;;;;;;;7.13;2.50;;;;;;;;;;4992757;28;20031;-82
2023/10/05 13:38:33;;;;;;;5.05;2.38;;;;;;;;;;4985242;28;20031;-81
2023/10/05 13:43:31;;;;;;;5.78;2.65;;;;;;;;;;4983839;28;20046;-82
2023/10/05 13:46:04;;;;;;;5.90;2.53;;;;;;;;;;4985947;28;20117;-82
2023/10/05 13:48:30;;;;;;;4.93;2.33;;;;;;;;;;4978006;28;20039;-82
2023/10/05 13:50:56;;;;;;;8.18;2.85;;;;;;;;;;4979258;28;20046;-82
2023/10/05 13:53:23;;;;;;;5.82;2.97;;;;;;;;;;4990606;28;20504;-82
2023/10/05 13:55:51;;;;;;;8.55;3.00;;;;;;;;;;4984138;28;20039;-82
2023/10/05 13:58:18;;;;;;;10.15;2.78;;;;;;;;;;4978552;28;20062;-82
2023/10/05 14:00:44;;;;;;;6.40;2.70;;;;;;;;;;4986732;28;20409;-82
2023/10/05 14:03:12;;;;;;;6.13;2.65;;;;;;;;;;4985983;28;20122;-82
2023/10/05 14:05:40;;;;;;;5.38;2.70;;;;;;;;;;4979326;28;20251;-82
2023/10/05 14:08:10;;;;;;;6.35;2.55;;;;;;;;;;4982377;28;20049;-83
2023/10/05 14:10:40;;;;;;;5.22;2.60;;;;;;;;;;4980344;28;20037;-81
2023/10/05 14:13:09;;;;;;;6.70;2.50;;;;;;;;;;4981726;28;20654;-83
2023/10/05 14:15:35;;;;;;;4.18;2.50;;;;;;;;;;4977340;28;20038;-83
2023/10/05 14:18:09;;;;;;;4.72;2.30;;;;;;;;;;4989348;28;20033;-82
2023/10/05 14:20:34;;;;;;;4.03;2.28;;;;;;;;;;4981704;28;20042;-81
2023/10/05 14:23:01;;;;;;;9.98;3.10;;;;;;;;;;4978696;28;20049;-82
2023/10/05 14:25:27;;;;;;;5.60;2.60;;;;;;;;;;4987435;28;20035;-82
2023/10/05 14:27:52;;;;;;;4.97;2.47;;;;;;;;;;4989362;28;20062;-82
2023/10/05 14:30:21;;;;;;;5.45;2.67;;;;;;;;;;4984222;28;20062;-83
2023/10/05 14:32:50;;;;;;;4.28;2.38;;;;;;;;;;4982255;28;20408;-83
2023/10/05 14:35:18;;;;;;;6.75;2.70;;;;;;;;;;4991948;28;20034;-83
2023/10/05 14:37:49;;;;;;;6.05;2.60;;;;;;;;;;4985433;28;20385;-83
2023/10/05 14:40:18;;;;;;;4.43;2.33;;;;;;;;;;4979545;28;20039;-82
2023/10/05 14:42:45;;;;;;;6.47;2.60;;;;;;;;;;4991062;28;20042;-81
2023/10/05 14:45:14;;;;;;;8.10;2.67;;;;;;;;;;4987873;28;20807;-82
2023/10/05 14:47:41;;;;;;;5.65;2.50;;;;;;;;;;4982445;28;20039;-82
2023/10/05 14:50:08;;;;;;;7.03;2.40;;;;;;;;;;4984556;28;20026;-83
2023/10/05 14:52:35;;;;;;;6.57;2.30;;;;;;;;;;4989829;28;20035;-82
2023/10/05 14:55:02;;;;;;;5.03;2.28;;;;;;;;;;4983733;28;20122;-83
2023/10/05 14:57:29;;;;;;;6.07;2.78;;;;;;;;;;4980222;28;20122;-83
2023/10/05 14:59:59;;;;;;;5.03;2.40;;;;;;;;;;4989860;28;20515;-83
2023/10/05 15:02:26;;;;;;;4.38;2.42;;;;;;;;;;4984718;28;20030;-82
2023/10/05 15:04:53;;;;;;;4.53;2.53;;;;;;;;;;4979110;28;20031;-82
2023/10/05 15:07:19;;;;;;;5.30;2.70;;;;;;;;;;4986107;28;20534;-82
2023/10/05 15:09:45;;;;;;;7.10;2.42;;;;;;;;;;4988803;28;20381;-81
2023/10/05 15:12:10;;;;;;;5.40;2.30;;;;;;;;;;4981882;28;20089;-81
2023/10/05 15:14:37;;;;;;;5.03;2.83;;;;;;;;;;4996144;28;20088;-82
2023/10/05 15:17:03;;;;;;;6.40;2.22;;;;;;;;;;4990538;28;20476;-82
2023/10/05 15:19:29;;;;;;;5.13;2.47;;;;;;;;;;4985133;28;20066;-82
2023/10/05 15:21:54;;;;;;;4.55;2.38;;;;;;;;;;4976676;28;20042;-82
2023/10/05 15:24:20;;;;;;;6.72;2.60;;;;;;;;;;5005252;28;20064;-83
2023/10/05 15:26:48;;;;;;;7.68;2.53;;;;;;;;;;4987360;28;20473;-83
2023/10/05 15:29:14;;;;;;;5.15;2.33;;;;;;;;;;4981162;28;20031;-83
2023/10/05 15:31:41;;;;;;;6.53;2.92;;;;;;;;;;4981530;28;20128;-83
2023/10/05 15:34:07;;;;;;;5.82;2.40;;;;;;;;;;4985540;28;20059;-83
2023/10/05 15:36:33;;;;;;;9.27;2.70;;;;;;;;;;4981716;28;20237;-82
2023/10/05 15:38:59;;;;;;;8.00;2.60;;;;;;;;;;4993940;28;20064;-82
2023/10/05 15:41:25;;;;;;;5.88;2.47;;;;;;;;;;4989632;28;20122;-83